Packwood, WA

7:50 AM PDT on October 31, 2014 (GMT -0700)
Paradise Estates | Change Station
CLOSE
Current Station
Personal Weather Station
Location: Ashford, WA
Elevation: 1722 ft
Nearby Weather Stations

Elev 1722 ft 46.73 °N, 122.01 °W | Updated 21 seconds ago

Rain
Rain
46.9 °F
Feels Like 47 °F
N
0.0
Wind Variable Wind from North
Gusts 1.0 mph

Today
High -- | Low -- °F
--% Chance of Precip.
Yesterday
High -- | Low -- °F
Precip. -- in
7:47 AM 5:52 PM
First Quarter, 56% visible
Pressure 29.72 in
Visibility 5.0 miles
Clouds Few 500 ft
Scattered Clouds 1200 ft
Mostly Cloudy 2100 ft
Overcast 2700 ft
Windchill 47 °F
Dew Point 47 °F
Humidity 99%
Rainfall 0.18 in
Snow Depth Not available.
UV 0 out of 12
Pollen .30 out of 12
Air Quality Not available.
Flu Activity Not available.
SPECI KTCM 311448Z AUTO 26007KT 5SM RA BR FEW005 SCT012 BKN021 OVC027 10/10 A2972 RMK AO2 CIG 011V021 $

More Conditions Fewer Conditions

Pressure 29.72 in
Visibility 5.0 miles
Clouds Few 500 ft
Scattered Clouds 1200 ft
Mostly Cloudy 2100 ft
Overcast 2700 ft
Windchill 47 °F
Dew Point 47 °F
Humidity 99%
Rainfall 0.18 in
Snow Depth Not available.
UV 0 out of 12
Pollen .30 out of 12
Air Quality Not available.
Flu Activity Not available.
SPECI KTCM 311448Z AUTO 26007KT 5SM RA BR FEW005 SCT012 BKN021 OVC027 10/10 A2972 RMK AO2 CIG 011V021 $

More Conditions Fewer Conditions

10-Day Weather Forecast

Almanac

Astronomy

Oct. 31, 2014 Rise Set
Actual Time
Civil Twilight
Nautical Twilight
Astronomical Twilight
Moon
Length of Visible Light
Length of Day
Tomorrow will be .
, % of the Moon is Illuminated

Today's Extremes

State Highs State Lows

Community

WunderPhotos

Upload Photos

1,766,625 photos uploaded!

WunderBlogs® & News

Nearby

Air Quality

  Air Quality AQ Index Pollutant
Not available.

Snow Depth

Station Depth Elevation

Earthquake Activity

City Distance Mag. Time & Date
Minimum magnitude displayed is 2.5.

Coastal Water Temperatures

Place Temperature

Nearby Weather Stations